Latest Weather Observations for Christmas Creek

IDW60801

Issued at 2:32 pm WST Monday 3 August 2015 (issued every 30 minutes, with the page automatically refreshed every 10 minutes)

About weather observations | Map of weather stations | Latest weather observations for WA | Other Formats
Station Details ID: 505049 Name: CHRISTMAS CREEK Lat: -22.36 Lon: 119.65 Height: 437.21 m
Data from the previous 72 hours. | See also: Recent months for locations in Western Australia
Date/Time
WST
Temp
°C
App
Temp
°C
Dew
Point
Rel
Hum
%
Delta-T
°C
Wind Press
QNH
hPa
Press
MSL
hPa
Rain
since 9 am
mm
Dir
 
Spd
km/h
Gust
km/h
Spd
kts
Gust
kts
03/02:30pm 23.4 18.7 6.0 32 9.0 ESE 20 32 11 17 1023.1 1022.1 0.0
03/02:00pm 22.9 16.7 6.1 33 8.7 SE 28 41 15 22 1023.3 1022.3 0.0
03/01:30pm 22.7 17.6 6.2 34 8.6 ESE 22 43 12 23 1023.6 1022.6 0.0
03/01:00pm 22.2 16.4 6.2 35 8.2 ESE 26 39 14 21 1024.3 1023.3 0.0
03/12:30pm 21.2 15.7 5.9 37 7.8 ESE 24 35 13 19 1024.8 1023.9 0.0
03/12:00pm 20.8 15.3 6.1 38 7.5 ESE 24 35 13 19 1025.4 1024.4 0.0
03/11:30am 19.9 14.0 6.0 40 7.1 ESE 26 35 14 19 1025.9 1024.9 0.0
03/11:00am 19.0 13.5 5.9 42 6.6 ESE 24 35 13 19 1026.2 1025.2 0.0
03/10:30am 18.0 11.7 5.9 45 6.1 SE 28 41 15 22 1026.6 1025.7 0.0
03/10:00am 16.7 10.4 5.9 49 5.3 ESE 28 41 15 22 1026.8 1025.9 0.0
03/09:30am 15.9 9.8 6.5 53 4.7 SE 28 39 15 21 1027.0 1026.1 0.0
03/09:00am 14.9 8.8 6.7 58 4.1 SE 28 37 15 20 1026.8 1025.9 0.0
03/08:30am 14.1 7.6 6.7 61 3.7 SE 30 43 16 23 1026.6 1025.7 0.0
03/08:00am 13.6 8.3 6.8 63 3.3 SE 24 39 13 21 1026.4 1025.4 0.0
03/07:30am 13.1 8.6 6.8 65 3.1 SE 20 32 11 17 1026.1 1025.1 0.0
03/07:00am 12.8 8.3 6.9 67 2.9 SE 20 30 11 16 1025.6 1024.6 0.0
03/06:30am 12.9 8.4 7.0 67 2.9 SE 20 32 11 17 1025.2 1024.3 0.0
03/06:00am 13.2 8.4 7.3 67 2.9 SE 22 32 12 17 1024.7 1023.8 0.0
03/05:30am 13.5 9.1 7.5 67 3.0 SE 20 33 11 18 1024.5 1023.6 0.0
03/05:00am 13.9 9.6 7.9 67 3.0 SE 20 28 11 15 1024.3 1023.3 0.0
03/04:30am 14.2 10.0 8.3 67 3.0 SE 20 28 11 15 1023.8 1022.8 0.0
03/04:00am 14.7 10.6 8.6 67 3.1 SE 20 32 11 17 1023.5 1022.5 0.0
03/03:30am 15.1 11.1 8.9 66 3.2 SE 20 33 11 18 1023.4 1022.4 0.0
03/03:00am 15.5 11.1 9.1 65 3.3 SE 22 32 12 17 1023.5 1022.5 0.0
03/02:30am 15.9 10.8 9.3 65 3.5 SE 26 35 14 19 1023.4 1022.4 0.0
03/02:00am 16.3 12.0 9.5 64 3.6 SE 22 33 12 18 1023.6 1022.6 0.0
03/01:30am 16.9 13.0 9.6 62 3.9 SE 20 28 11 15 1023.5 1022.5 0.0
03/01:00am 17.4 13.5 9.6 60 4.2 SE 20 30 11 16 1023.6 1022.6 0.0
03/12:30am 17.9 13.7 9.6 58 4.5 SE 22 33 12 18 1023.6 1022.6 0.0
03/12:00am 18.3 14.1 9.6 57 4.7 SE 22 35 12 19 1023.6 1022.6 0.0
 
Date/Time
WST
Temp
°C
App
Temp
°C
Dew
Point
Rel
Hum
%
Delta-T
°C
Wind Press
QNH
hPa
Press
MSL
hPa
Rain
since 9 am
mm
Dir
 
Spd
km/h
Gust
km/h
Spd
kts
Gust
kts
02/11:30pm 18.5 13.9 9.6 56 4.8 SE 24 33 13 18 1023.7 1022.7 0.0
02/11:00pm 18.6 15.3 9.4 55 4.9 SE 17 24 9 13 1023.9 1022.9 0.0
02/10:30pm 18.9 15.5 9.3 53 5.2 SE 17 24 9 13 1023.8 1022.8 0.0
02/10:00pm 19.3 15.9 9.0 51 5.5 SE 17 22 9 12 1023.7 1022.7 0.0
02/09:30pm 19.5 17.1 8.8 50 5.7 SE 11 15 6 8 1023.6 1022.6 0.0
02/09:00pm 20.2 18.2 8.5 47 6.2 SE 9 15 5 8 1023.5 1022.5 0.0
02/08:30pm 20.8 18.4 8.6 45 6.5 SE 11 17 6 9 1023.4 1022.4 0.0
02/08:00pm 20.9 18.5 8.7 45 6.5 SE 11 17 6 9 1023.1 1022.1 0.0
02/07:30pm 21.5 19.0 8.2 42 7.1 SE 11 15 6 8 1022.6 1021.7 0.0
02/07:00pm 22.4 19.9 8.1 40 7.6 SE 11 19 6 10 1022.3 1021.3 0.0
02/06:30pm 22.9 19.9 7.9 38 8.0 SSE 13 19 7 10 1022.0 1021.0 0.0
02/06:00pm 23.7 20.3 7.8 36 8.5 SSE 15 19 8 10 1021.6 1020.6 0.0
02/05:30pm 24.6 20.9 7.9 34 9.0 SSE 17 26 9 14 1021.3 1020.3 0.0
02/05:00pm 25.5 21.7 7.6 32 9.7 SE 17 22 9 12 1021.0 1020.0 0.0
02/04:30pm 25.9 22.1 7.4 30 10.0 SE 17 28 9 15 1020.8 1019.8 0.0
02/04:00pm 25.8 21.9 7.2 30 10.0 SE 17 24 9 13 1020.7 1019.7 0.0
02/03:30pm 26.2 22.0 7.5 30 10.1 SE 19 30 10 16 1020.7 1019.7 0.0
02/03:00pm 25.8 22.3 7.4 31 9.9 SE 15 24 8 13 1020.8 1019.8 0.0
02/02:30pm 26.2 22.4 7.6 30 10.1 SE 17 30 9 16 1020.9 1019.9 0.0
02/02:00pm 25.4 21.6 7.7 32 9.6 SE 17 32 9 17 1021.1 1020.1 0.0
02/01:30pm 25.4 21.7 8.1 33 9.4 ESE 17 24 9 13 1021.2 1020.2 0.0
02/01:00pm 24.7 19.7 7.9 34 9.1 SE 24 35 13 19 1021.3 1020.3 0.0
02/12:30pm 24.2 18.7 7.7 34 8.9 SE 26 35 14 19 1021.8 1020.8 0.0
02/12:00pm 23.9 19.7 8.3 37 8.4 ESE 20 32 11 17 1022.1 1021.1 0.0
02/11:30am 23.5 19.3 8.1 37 8.3 SE 20 32 11 17 1022.5 1021.6 0.0
02/11:00am 22.0 18.0 8.3 41 7.3 SE 19 26 10 14 1023.0 1022.0 0.0
02/10:30am 21.3 16.7 8.2 43 7.0 SE 22 32 12 17 1023.4 1022.4 0.0
02/10:00am 20.1 16.1 8.3 46 6.2 SE 19 28 10 15 1023.5 1022.5 0.0
02/09:30am 18.5 14.8 7.9 50 5.5 SE 17 24 9 13 1023.5 1022.5 0.0
02/09:00am 17.5 13.8 8.0 53 4.9 SE 17 24 9 13 1023.6 1022.6 0.0
02/08:30am 16.3 12.6 7.8 57 4.4 SE 17 24 9 13 1023.4 1022.4 0.0
02/08:00am 15.4 12.0 7.8 60 3.9 SE 15 24 8 13 1023.0 1022.0 0.0
02/07:30am 13.4 11.8 8.0 70 2.7 SSE 6 9 3 5 1022.6 1021.7 0.0
02/07:00am 12.7 10.9 7.8 72 2.5 ESE 7 9 4 5 1022.2 1021.2 0.0
02/06:30am 12.3 10.6 7.7 73 2.3 SE 6 7 3 4 1021.7 1020.7 0.0
02/06:00am 12.8 11.2 7.8 71 2.5 ESE 6 7 3 4 1021.2 1020.2 0.0
02/05:30am 12.9 12.1 8.0 72 2.5 SSE 2 6 1 3 1020.7 1019.7 0.0
02/05:00am 13.5 11.8 8.2 70 2.7 S 7 11 4 6 1020.4 1019.4 0.0
02/04:30am 14.2 12.5 8.2 67 3.1 S 7 11 4 6 1020.1 1019.1 0.0
02/04:00am 15.1 12.6 8.1 63 3.6 S 11 17 6 9 1020.1 1019.1 0.0
02/03:30am 14.9 12.9 8.6 66 3.3 SSE 9 13 5 7 1020.2 1019.2 0.0
02/03:00am 14.6 13.1 9.0 69 2.9 SSE 7 9 4 5 1020.3 1019.3 0.0
02/02:30am 15.2 13.7 9.2 67 3.2 SSE 7 11 4 6 1020.1 1019.1 0.0
02/02:00am 14.8 13.6 9.6 71 2.7 SSE 6 7 3 4 1020.2 1019.2 0.0
02/01:30am 15.6 14.2 9.7 68 3.1 SSE 7 9 4 5 1020.2 1019.2 0.0
02/01:00am 16.4 15.2 9.7 64 3.6 SSE 6 7 3 4 1020.3 1019.3 0.0
02/12:30am 16.9 15.6 9.9 63 3.8 SSE 7 9 4 5 1020.3 1019.3 0.0
02/12:00am 17.5 16.2 10.0 61 4.0 SSE 7 9 4 5 1020.2 1019.2 0.0
 
Date/Time
WST
Temp
°C
App
Temp
°C
Dew
Point
Rel
Hum
%
Delta-T
°C
Wind Press
QNH
hPa
Press
MSL
hPa
Rain
since 9 am
mm
Dir
 
Spd
km/h
Gust
km/h
Spd
kts
Gust
kts
01/11:30pm 17.8 16.6 10.2 61 4.1 SSE 7 9 4 5 1020.2 1019.2 0.0
01/11:00pm 18.6 17.4 10.3 58 4.5 SSE 7 11 4 6 1020.2 1019.2 0.0
01/10:30pm 19.2 18.3 10.5 57 4.8 SSE 6 9 3 5 1020.1 1019.1 0.0
01/10:00pm 19.4 18.5 10.7 57 4.8 S 6 9 3 5 1019.9 1018.9 0.0
01/09:30pm 20.5 18.6 10.4 52 5.6 S 11 15 6 8 1019.8 1018.8 0.0
01/09:00pm 21.8 19.4 10.2 47 6.4 S 13 24 7 13 1019.7 1018.7 0.0
01/08:30pm 21.1 18.9 9.5 47 6.3 SW 11 17 6 9 1019.3 1018.3 0.0
01/08:00pm 21.3 20.7 10.3 49 6.1 NNW 4 4 2 2 1018.9 1017.9 0.0
01/07:30pm 21.1 20.4 10.2 49 6.0 N 4 6 2 3 1018.6 1017.6 0.0
01/07:00pm 22.2 21.5 9.9 45 6.8 WNW 4 6 2 3 1018.2 1017.1 0.0
01/06:30pm 22.7 22.2 9.3 42 7.4 S 2 4 1 2 1017.7 1016.7 0.0
01/06:00pm 24.8 24.1 9.9 39 8.3 NW 4 6 2 3 1017.3 1016.3 0.0
01/05:30pm 26.3 24.7 8.2 31 9.9 NW 6 9 3 5 1017.1 1016.1 0.0
01/05:00pm 26.8 23.9 8.1 30 10.3 WNW 13 17 7 9 1016.9 1015.9 0.0
01/04:30pm 26.9 24.1 7.1 28 10.7 WSW 11 15 6 8 1016.9 1015.9 0.0
01/04:00pm 27.1 24.8 7.5 29 10.7 WSW 9 15 5 8 1016.7 1015.7 0.0
01/03:30pm 27.5 24.8 7.3 28 11.0 W 11 24 6 13 1016.6 1015.6 0.0
01/03:00pm 26.9 25.7 9.4 33 9.8 NW 6 15 3 8 1016.7 1015.7 0.0
01/02:30pm 26.6 24.9 9.8 34 9.5 W 9 19 5 10 1016.9 1015.9 0.0
01/02:00pm 25.7 24.6 10.8 39 8.5 WSW 7 13 4 7 1017.2 1016.2 0.0
01/01:30pm 26.0 25.5 11.9 41 8.2 SW 6 11 3 6 1017.5 1016.5 0.0
01/01:00pm 25.2 23.6 11.5 42 7.9 SSW 11 19 6 10 1017.8 1016.8 0.0
01/12:30pm 25.0 24.1 12.5 45 7.3 S 9 17 5 9 1018.3 1017.2 0.0
01/12:00pm 23.9 22.2 12.6 49 6.6 SSW 13 19 7 10 1018.8 1017.8 0.0
01/11:30am 24.1 22.8 12.4 48 6.8 S 11 20 6 11 1019.1 1018.1 0.0
01/11:00am 23.0 22.2 12.8 52 5.9 S 9 17 5 9 1019.6 1018.6 0.0
01/10:30am 22.4 20.7 12.4 53 5.8 S 13 20 7 11 1020.0 1019.0 0.0
01/10:00am 22.1 20.1 12.7 55 5.4 S 15 22 8 12 1020.2 1019.2 0.0
01/09:30am 21.4 19.9 11.8 54 5.5 SE 11 19 6 10 1020.2 1019.2 0.0
01/09:00am 20.6 18.6 11.5 56 5.1 SSE 13 19 7 10 1019.9 1018.9 0.0
01/08:30am 19.8 18.6 10.4 54 5.2 S 7 15 4 8 1019.5 1018.5 0.0
01/08:00am 17.9 17.2 8.7 55 4.9 S 2 6 1 3 1019.2 1018.2 0.0
01/07:30am 15.8 14.6 8.2 60 3.9 W 4 6 2 3 1018.7 1018.1 0.0
01/07:00am 12.8 11.8 7.5 70 2.6 NW 2 4 1 2 1018.2 1017.5 0.0
01/06:30am 12.8 11.7 6.7 66 3.0 N 2 4 1 2 1017.7 1017.1 0.0
01/06:00am 13.4 11.5 6.6 63 3.3 NNW 6 7 3 4 1017.4 1016.8 0.0
01/05:30am 13.5 11.9 6.5 62 3.4 N 4 6 2 3 1017.1 1016.5 0.0
01/05:00am 14.5 12.8 6.1 57 4.1 N 4 6 2 3 1016.9 1016.3 0.0
01/04:30am 14.5 12.4 5.7 55 4.3 N 6 7 3 4 1016.8 1016.2 0.0
01/04:00am 14.6 11.5 5.6 54 4.4 N 11 13 6 7 1016.7 1016.1 0.0
01/03:30am 14.7 12.5 5.5 54 4.5 N 6 9 3 5 1016.8 1016.2 0.0
01/03:00am 15.3 12.6 5.4 51 4.8 N 9 11 5 6 1016.8 1016.2 0.0
01/02:30am 16.2 13.4 5.2 48 5.4 N 9 13 5 7 1017.0 1016.4 0.0
01/02:00am 16.2 13.8 5.4 48 5.3 N 7 9 4 5 1017.2 1016.6 0.0
01/01:30am 17.7 14.8 4.8 42 6.3 WNW 9 11 5 6 1017.3 1016.7 0.0
01/01:00am 18.2 14.9 4.6 40 6.6 WNW 11 13 6 7 1017.5 1016.9 0.0
01/12:30am 18.0 15.1 4.5 41 6.6 WNW 9 13 5 7 1017.7 1017.1 0.0
01/12:00am 17.9 15.0 4.4 41 6.5 WNW 9 11 5 6 1017.6 1017.0 0.0
 
Date/Time
WST
Temp
°C
App
Temp
°C
Dew
Point
Rel
Hum
%
Delta-T
°C
Wind Press
QNH
hPa
Press
MSL
hPa
Rain
since 9 am
mm
Dir
 
Spd
km/h
Gust
km/h
Spd
kts
Gust
kts
31/11:30pm 19.1 15.7 3.8 36 7.4 NW 11 17 6 9 1017.6 1017.0 0.0
31/11:00pm 18.4 15.5 4.4 39 6.8 N 9 11 5 6 1017.4 1016.8 0.0
31/10:30pm 20.4 15.8 3.6 33 8.2 NW 17 20 9 11 1017.3 1016.7 0.0
31/10:00pm 21.2 17.0 3.6 31 8.6 NNW 15 20 8 11 1017.3 1016.7 0.0
31/09:30pm 21.2 16.6 3.8 32 8.6 NW 17 20 9 11 1017.2 1016.6 0.0
31/09:00pm 21.1 16.6 4.1 32 8.4 NW 17 20 9 11 1017.3 1016.7 0.0
31/08:30pm 20.8 16.3 4.4 34 8.1 NW 17 19 9 10 1017.5 1016.9 0.0
31/08:00pm 22.1 17.9 4.0 30 9.0 NW 15 19 8 10 1017.2 1016.6 0.0
31/07:30pm 21.5 17.5 4.8 33 8.4 NW 15 17 8 9 1017.0 1016.4 0.0
31/07:00pm 22.3 18.6 4.7 31 8.9 NW 13 15 7 8 1016.7 1016.1 0.0
31/06:30pm 23.0 20.1 4.6 30 9.3 WNW 9 11 5 6 1016.4 1015.8 0.0
31/06:00pm 24.7 20.9 4.0 26 10.4 WNW 13 15 7 8 1016.0 1015.3 0.0
31/05:30pm 26.5 22.6 3.5 22 11.6 WNW 13 17 7 9 1015.7 1015.0 0.0
31/05:00pm 27.9 23.0 2.3 19 12.8 WNW 17 24 9 13 1015.7 1015.0 0.0
31/04:30pm 28.5 23.0 2.0 18 13.2 NW 20 28 11 15 1015.4 1014.8 0.0
31/04:00pm 28.5 23.9 1.3 17 13.4 NW 15 28 8 15 1015.4 1014.8 0.0
31/03:30pm 28.6 23.1 0.7 16 13.6 NW 19 32 10 17 1015.5 1014.9 0.0
31/03:00pm 28.6 22.4 2.1 18 13.3 NNW 24 33 13 18 1015.7 1015.0 0.0

Other Formats:

Comma delimited format used in spreadsheet applications
http://www.bom.gov.au/fwo/IDW60801/IDW60801.99737.axf

JavaScript Object Notation format (JSON) in row-major order
http://www.bom.gov.au/fwo/IDW60801/IDW60801.99737.json